Time;durP1;ratioP1;P1;durP2;ratioP2;P2;SDS_P1;SDS_P2;PMS_P1;PMS_P2;Temp;Humidity;BMP_temperature;BMP_pressure;BME280_temperature;BME280_humidity;BME280_pressure;Samples;Min_cycle;Max_cycle;Signal;HPM_P1;HPM_P2
2022/03/14 00:00:27;;;;;;;12.98;7.28;;;10.30;98.60;;;;;;4823473;29;20050;-83
2022/03/14 00:02:53;;;;;;;9.93;6.38;;;10.30;98.90;;;;;;4823360;29;20567;-82
2022/03/14 00:05:19;;;;;;;9.68;7.07;;;10.30;99.10;;;;;;4822035;29;20062;-83
2022/03/14 00:07:46;;;;;;;11.55;6.05;;;10.40;99.40;;;;;;4831378;29;20504;-81
2022/03/14 00:10:15;;;;;;;10.00;6.45;;;10.30;99.70;;;;;;4840102;29;20058;-83
2022/03/14 00:12:42;;;;;;;10.88;6.65;;;10.40;99.90;;;;;;4841552;29;20106;-82
2022/03/14 00:15:11;;;;;;;12.18;7.13;;;10.40;99.90;;;;;;4841254;29;20136;-83
2022/03/14 00:17:38;;;;;;;9.32;5.93;;;10.40;99.90;;;;;;4840107;29;20088;-82
2022/03/14 00:20:07;;;;;;;9.73;5.70;;;10.40;99.90;;;;;;4841426;29;20053;-83
2022/03/14 00:22:32;;;;;;;9.00;5.50;;;10.30;99.90;;;;;;4839976;29;20065;-83
2022/03/14 00:24:58;;;;;;;8.05;5.43;;;10.30;99.90;;;;;;4839952;29;20046;-84
2022/03/14 00:27:24;;;;;;;8.98;5.40;;;10.30;99.90;;;;;;4825115;29;20539;-82
2022/03/14 00:29:50;;;;;;;8.60;5.10;;;10.20;99.90;;;;;;4840067;29;20050;-83
2022/03/14 00:32:15;;;;;;;8.48;4.75;;;10.10;99.90;;;;;;4839823;29;20057;-82
2022/03/14 00:34:41;;;;;;;8.93;5.95;;;10.10;99.90;;;;;;4823996;29;20050;-83
2022/03/14 00:37:06;;;;;;;7.80;4.82;;;10.10;99.90;;;;;;4841088;29;20154;-82
2022/03/14 00:39:32;;;;;;;7.22;4.80;;;10.10;99.90;;;;;;4840734;29;20050;-83
2022/03/14 00:41:58;;;;;;;8.52;5.03;;;10.10;99.90;;;;;;4839870;29;20054;-84
2022/03/14 00:44:24;;;;;;;7.90;5.20;;;10.10;99.90;;;;;;4839842;29;20062;-83
2022/03/14 00:46:50;;;;;;;7.35;4.85;;;10.10;99.90;;;;;;4840747;29;20129;-83
2022/03/14 00:49:15;;;;;;;7.80;4.60;;;10.10;99.90;;;;;;4841103;29;20123;-83
2022/03/14 00:51:42;;;;;;;7.20;4.80;;;10.10;99.90;;;;;;4824707;29;20053;-83
2022/03/14 00:54:07;;;;;;;7.35;4.65;;;10.10;99.90;;;;;;4840831;29;20089;-83
2022/03/14 00:56:33;;;;;;;7.03;4.03;;;10.20;99.90;;;;;;4839837;29;20576;-83
2022/03/14 00:58:59;;;;;;;6.03;3.83;;;10.20;99.90;;;;;;4835141;29;20054;-83
2022/03/14 01:01:26;;;;;;;6.35;3.67;;;10.30;99.90;;;;;;4821684;29;20062;-83
2022/03/14 01:03:53;;;;;;;5.65;3.83;;;10.30;99.90;;;;;;4822597;29;20054;-83
2022/03/14 01:06:19;;;;;;;5.32;3.60;;;10.30;99.90;;;;;;4821758;29;20074;-84
2022/03/14 01:08:44;;;;;;;5.90;3.83;;;10.30;99.90;;;;;;4837154;29;20110;-83
2022/03/14 01:11:10;;;;;;;6.15;3.50;;;10.30;99.90;;;;;;4839407;29;20057;-83
2022/03/14 01:13:36;;;;;;;5.65;3.90;;;10.30;99.90;;;;;;4839377;29;20050;-83
2022/03/14 01:16:03;;;;;;;5.90;3.80;;;10.30;99.90;;;;;;4841162;29;20141;-84
2022/03/14 01:18:29;;;;;;;6.55;3.20;;;10.20;99.90;;;;;;4843156;29;20068;-83
2022/03/14 01:20:56;;;;;;;5.93;3.22;;;10.20;99.90;;;;;;4842973;29;20066;-83
2022/03/14 01:23:22;;;;;;;4.88;2.72;;;10.10;99.90;;;;;;4844265;29;20054;-83
2022/03/14 01:25:48;;;;;;;4.43;3.00;;;10.10;99.90;;;;;;4844243;29;20050;-83
2022/03/14 01:28:14;;;;;;;4.93;3.17;;;10.20;99.90;;;;;;4843041;29;20062;-83
2022/03/14 01:30:42;;;;;;;4.38;2.70;;;10.20;99.90;;;;;;4843132;29;20077;-83
2022/03/14 01:33:08;;;;;;;5.18;2.90;;;10.20;99.90;;;;;;4844161;29;20057;-83
2022/03/14 01:35:34;;;;;;;4.68;3.15;;;10.20;99.90;;;;;;4842000;29;20053;-83
2022/03/14 01:37:59;;;;;;;5.53;3.22;;;10.20;99.90;;;;;;4843657;29;20090;-83
2022/03/14 01:40:25;;;;;;;5.05;3.17;;;10.20;99.90;;;;;;4842944;29;20089;-84
2022/03/14 01:42:52;;;;;;;5.05;2.58;;;10.20;99.90;;;;;;4842789;29;20057;-84
2022/03/14 01:45:18;;;;;;;4.18;2.80;;;10.20;99.90;;;;;;4827509;29;20495;-83
2022/03/14 01:47:45;;;;;;;4.82;2.50;;;10.20;99.90;;;;;;4842396;29;20054;-83
2022/03/14 01:50:13;;;;;;;4.50;2.58;;;10.20;99.90;;;;;;4841863;29;20054;-83
2022/03/14 01:52:40;;;;;;;4.63;2.65;;;10.20;99.90;;;;;;4842861;29;20054;-83
2022/03/14 01:55:07;;;;;;;4.03;2.70;;;10.20;99.90;;;;;;4843410;29;20545;-84
2022/03/14 01:57:34;;;;;;;3.97;2.80;;;10.20;99.90;;;;;;4842578;29;20065;-84
2022/03/14 02:00:00;;;;;;;4.00;2.70;;;10.20;99.90;;;;;;4828929;29;20054;-83
2022/03/14 02:02:26;;;;;;;3.92;2.38;;;10.20;99.90;;;;;;4825277;29;20050;-83
2022/03/14 02:04:53;;;;;;;4.07;2.47;;;10.20;99.90;;;;;;4823409;29;20062;-83
2022/03/14 02:07:20;;;;;;;5.97;2.55;;;10.20;99.90;;;;;;4830114;29;20457;-83
2022/03/14 02:09:46;;;;;;;4.20;2.47;;;10.20;99.90;;;;;;4842247;29;20054;-84
2022/03/14 02:12:12;;;;;;;3.45;2.35;;;10.20;99.90;;;;;;4842078;29;20487;-84
2022/03/14 02:14:39;;;;;;;3.72;2.30;;;10.20;99.90;;;;;;4842171;29;20050;-83
2022/03/14 02:17:20;;;;;;;3.53;2.28;;;10.20;99.90;;;;;;4842013;29;20053;-83
2022/03/14 02:19:46;;;;;;;4.43;2.70;;;10.20;99.90;;;;;;4842232;29;20062;-82
2022/03/14 02:22:13;;;;;;;4.47;2.58;;;10.10;99.90;;;;;;4843287;29;20054;-84
2022/03/14 02:24:43;;;;;;;3.67;2.20;;;10.10;99.90;;;;;;4842220;29;20064;-84
2022/03/14 02:27:11;;;;;;;4.75;2.50;;;10.10;99.90;;;;;;4842140;29;20050;-84
2022/03/14 02:29:37;;;;;;;4.30;2.60;;;10.10;99.90;;;;;;4841982;29;20454;-83
2022/03/14 02:32:04;;;;;;;4.28;2.80;;;10.10;99.90;;;;;;4826865;29;20058;-83
2022/03/14 02:34:29;;;;;;;3.72;2.45;;;10.10;99.90;;;;;;4841160;29;20098;-83
2022/03/14 02:36:55;;;;;;;4.13;2.50;;;10.10;99.90;;;;;;4826749;29;20065;-84
2022/03/14 02:39:21;;;;;;;4.00;2.38;;;10.10;99.90;;;;;;4841963;29;20140;-83
2022/03/14 02:41:47;;;;;;;4.00;2.42;;;10.10;99.90;;;;;;4841823;29;20506;-83
2022/03/14 02:44:13;;;;;;;4.30;2.60;;;10.10;99.90;;;;;;4826447;29;20085;-84
2022/03/14 02:46:40;;;;;;;4.47;2.55;;;10.10;99.90;;;;;;4842805;29;20060;-83
2022/03/14 02:49:10;;;;;;;3.97;2.50;;;10.10;99.90;;;;;;4842775;29;20110;-85
2022/03/14 02:51:41;;;;;;;4.10;2.55;;;10.20;99.90;;;;;;4841341;29;20049;-84
2022/03/14 02:54:09;;;;;;;3.55;2.40;;;10.20;99.90;;;;;;4841686;29;20445;-84
2022/03/14 02:56:38;;;;;;;3.92;2.35;;;10.20;99.90;;;;;;4841639;29;20058;-83
2022/03/14 02:59:06;;;;;;;3.72;2.30;;;10.30;99.90;;;;;;4834953;29;20052;-83
2022/03/14 03:01:33;;;;;;;4.25;2.30;;;10.30;99.90;;;;;;4823281;29;20062;-84
2022/03/14 03:03:58;;;;;;;4.05;2.00;;;10.40;99.90;;;;;;4823833;29;20054;-82
2022/03/14 03:06:24;;;;;;;3.88;2.50;;;10.40;99.90;;;;;;4806743;29;20073;-83
2022/03/14 03:08:51;;;;;;;3.20;2.00;;;10.40;99.90;;;;;;4839321;29;20116;-83
2022/03/14 03:11:17;;;;;;;5.22;2.40;;;10.50;99.90;;;;;;4826328;29;20452;-82
2022/03/14 03:13:43;;;;;;;3.72;2.20;;;10.40;99.90;;;;;;4842274;29;20058;-83
2022/03/14 03:16:13;;;;;;;3.25;2.00;;;10.40;99.90;;;;;;4842160;29;20515;-82
2022/03/14 03:18:39;;;;;;;3.83;1.92;;;10.40;99.90;;;;;;4841283;29;20105;-83
2022/03/14 03:21:05;;;;;;;3.13;1.90;;;10.40;99.90;;;;;;4842176;29;20065;-83
2022/03/14 03:23:33;;;;;;;3.67;2.00;;;10.40;99.90;;;;;;4842221;29;20133;-84
2022/03/14 03:25:59;;;;;;;4.28;2.00;;;10.40;99.90;;;;;;4841076;29;20073;-83
2022/03/14 03:28:24;;;;;;;2.90;1.85;;;10.40;99.90;;;;;;4842200;29;20415;-84
2022/03/14 03:30:50;;;;;;;4.97;2.08;;;10.40;99.90;;;;;;4840763;29;20046;-84
2022/03/14 03:33:16;;;;;;;3.45;2.10;;;10.40;99.90;;;;;;4840911;29;20433;-83
2022/03/14 03:35:42;;;;;;;3.30;1.80;;;10.30;99.90;;;;;;4840003;29;20082;-84
2022/03/14 03:38:08;;;;;;;2.88;1.90;;;10.30;99.90;;;;;;4840840;29;20102;-83
2022/03/14 03:40:34;;;;;;;3.33;1.92;;;10.30;99.90;;;;;;4825699;29;20074;-84
2022/03/14 03:42:59;;;;;;;3.38;1.95;;;10.20;99.90;;;;;;4840478;29;20050;-84
2022/03/14 03:45:26;;;;;;;3.88;2.10;;;10.20;99.90;;;;;;4825458;29;20045;-84
2022/03/14 03:47:53;;;;;;;2.78;1.80;;;10.20;99.90;;;;;;4840741;29;20130;-85
2022/03/14 03:50:19;;;;;;;3.20;1.98;;;10.30;99.90;;;;;;4840795;29;20686;-85
2022/03/14 03:52:44;;;;;;;3.78;2.05;;;10.30;99.90;;;;;;4841702;29;20128;-84
2022/03/14 03:55:10;;;;;;;7.32;2.55;;;10.30;99.90;;;;;;4825107;29;20046;-84
2022/03/14 03:57:36;;;;;;;4.03;2.10;;;10.30;99.90;;;;;;4841629;29;20124;-85
2022/03/14 04:00:07;;;;;;;3.78;2.22;;;10.20;99.90;;;;;;4826772;29;20126;-85
2022/03/14 04:02:36;;;;;;;4.57;3.10;;;10.10;99.90;;;;;;4822331;29;20385;-84
2022/03/14 04:05:04;;;;;;;4.03;2.58;;;10.00;99.90;;;;;;4822554;29;20173;-84
2022/03/14 04:07:32;;;;;;;5.03;2.60;;;9.90;99.90;;;;;;4828470;29;20061;-84
2022/03/14 04:09:59;;;;;;;3.58;2.47;;;9.80;99.90;;;;;;4841536;29;20049;-84
2022/03/14 04:12:26;;;;;;;4.20;2.38;;;9.80;99.90;;;;;;4840454;29;20090;-84
2022/03/14 04:14:52;;;;;;;5.78;2.33;;;9.80;99.90;;;;;;4841328;29;20053;-84
2022/03/14 04:17:19;;;;;;;4.25;2.60;;;9.90;99.90;;;;;;4824937;29;20587;-84
2022/03/14 04:19:47;;;;;;;4.03;2.20;;;9.90;99.90;;;;;;4839969;29;20425;-84
2022/03/14 04:22:15;;;;;;;4.43;2.70;;;9.90;99.90;;;;;;4840752;29;20065;-83
2022/03/14 04:24:41;;;;;;;4.25;2.70;;;9.90;99.90;;;;;;4840067;29;20046;-81
2022/03/14 04:27:06;;;;;;;3.80;2.45;;;9.90;99.90;;;;;;4840290;29;20062;-84
2022/03/14 04:29:32;;;;;;;5.00;3.03;;;9.90;99.90;;;;;;4840080;29;20133;-83
2022/03/14 04:31:58;;;;;;;3.67;2.85;;;9.80;99.90;;;;;;4841237;29;20123;-84
2022/03/14 04:34:24;;;;;;;4.80;2.67;;;9.90;99.90;;;;;;4839964;29;20126;-84
2022/03/14 04:36:52;;;;;;;4.18;2.55;;;9.90;99.90;;;;;;4840646;29;20100;-84
2022/03/14 04:39:19;;;;;;;4.00;2.58;;;9.90;99.90;;;;;;4825377;29;20085;-83
2022/03/14 04:41:44;;;;;;;4.20;2.75;;;9.90;99.90;;;;;;4840171;29;20057;-84
2022/03/14 04:44:10;;;;;;;4.35;2.20;;;9.90;99.90;;;;;;4825003;29;20395;-84
2022/03/14 04:46:36;;;;;;;4.43;2.95;;;9.90;99.90;;;;;;4840001;29;20687;-85
2022/03/14 04:49:08;;;;;;;4.15;2.72;;;9.90;99.90;;;;;;4840095;29;20053;-84
2022/03/14 04:51:36;;;;;;;4.55;2.70;;;9.90;99.90;;;;;;4842430;29;20474;-84
2022/03/14 04:54:02;;;;;;;5.40;2.95;;;9.90;99.90;;;;;;4843849;29;20166;-85
2022/03/14 04:56:28;;;;;;;4.47;2.75;;;9.90;99.90;;;;;;4843391;29;20511;-82
2022/03/14 04:58:53;;;;;;;5.70;2.78;;;9.90;99.90;;;;;;4822872;29;20050;-83
2022/03/14 05:01:20;;;;;;;4.40;2.90;;;9.80;99.90;;;;;;4826199;29;20046;-84
2022/03/14 05:03:46;;;;;;;3.63;2.85;;;9.80;99.90;;;;;;4826334;29;20441;-84
2022/03/14 05:06:12;;;;;;;6.60;3.13;;;9.70;99.90;;;;;;4823923;29;20081;-84
2022/03/14 05:08:37;;;;;;;4.82;3.10;;;9.70;99.90;;;;;;4840831;29;20571;-84
2022/03/14 05:11:04;;;;;;;4.72;2.75;;;9.70;99.90;;;;;;4843681;29;20136;-85
2022/03/14 05:13:30;;;;;;;5.22;3.30;;;9.60;99.90;;;;;;4843285;29;20552;-84
2022/03/14 05:15:56;;;;;;;4.10;3.05;;;9.60;99.90;;;;;;4827741;29;20056;-84
2022/03/14 05:18:22;;;;;;;4.50;2.92;;;9.60;99.90;;;;;;4828145;29;20061;-84
2022/03/14 05:20:47;;;;;;;4.28;2.75;;;9.60;99.90;;;;;;4827964;29;20057;-84
2022/03/14 05:23:13;;;;;;;4.70;3.00;;;9.60;99.90;;;;;;4843069;29;20054;-85
2022/03/14 05:25:39;;;;;;;4.95;2.90;;;9.50;99.90;;;;;;4844203;29;20046;-84
2022/03/14 05:28:04;;;;;;;5.65;3.05;;;9.50;99.90;;;;;;4844333;29;20127;-86
2022/03/14 05:30:30;;;;;;;5.90;2.97;;;9.50;99.90;;;;;;4843028;29;20064;-84
2022/03/14 05:32:56;;;;;;;4.80;3.00;;;9.50;99.90;;;;;;4843115;29;20373;-84
2022/03/14 05:35:22;;;;;;;4.90;3.00;;;9.40;99.90;;;;;;4843218;29;20054;-84
2022/03/14 05:37:48;;;;;;;4.00;2.80;;;9.40;99.90;;;;;;4842625;29;20068;-84
2022/03/14 05:40:20;;;;;;;5.20;3.17;;;9.40;99.90;;;;;;4842876;29;20144;-84
2022/03/14 05:42:47;;;;;;;4.55;3.03;;;9.30;99.90;;;;;;4842963;29;20086;-84
2022/03/14 05:45:14;;;;;;;5.43;3.08;;;9.30;99.90;;;;;;4842683;29;20810;-84
2022/03/14 05:47:40;;;;;;;4.45;3.03;;;9.30;99.90;;;;;;4842898;29;20169;-84
2022/03/14 05:50:07;;;;;;;4.43;2.78;;;9.30;99.90;;;;;;4843812;29;20085;-84
2022/03/14 05:52:32;;;;;;;4.65;3.10;;;9.20;99.90;;;;;;4843821;29;20532;-85
2022/03/14 05:54:58;;;;;;;5.32;3.28;;;9.20;99.90;;;;;;4842574;29;20089;-85
2022/03/14 05:57:24;;;;;;;5.55;2.90;;;9.20;99.90;;;;;;4842363;29;20145;-84
2022/03/14 05:59:50;;;;;;;5.45;3.50;;;9.10;99.90;;;;;;4839192;29;20133;-85
2022/03/14 06:02:22;;;;;;;5.47;3.33;;;9.10;99.90;;;;;;4824166;29;20077;-84
2022/03/14 06:04:53;;;;;;;5.47;3.22;;;9.10;99.90;;;;;;4823371;29;20058;-85
2022/03/14 06:07:21;;;;;;;5.60;3.70;;;9.10;99.90;;;;;;4829979;29;20064;-85
2022/03/14 06:09:50;;;;;;;4.32;2.97;;;9.10;99.90;;;;;;4843377;29;20093;-85
2022/03/14 06:12:24;;;;;;;6.38;3.50;;;9.00;99.90;;;;;;4842077;29;20057;-85
2022/03/14 06:14:52;;;;;;;6.63;3.50;;;9.00;99.90;;;;;;4841912;29;20050;-85
2022/03/14 06:17:18;;;;;;;5.00;3.45;;;9.00;99.90;;;;;;4843168;29;20060;-84
2022/03/14 06:19:43;;;;;;;5.25;3.38;;;9.00;99.90;;;;;;4842097;29;20062;-86
2022/03/14 06:22:09;;;;;;;7.70;3.70;;;9.00;99.90;;;;;;4827056;29;20061;-85
2022/03/14 06:24:34;;;;;;;6.53;4.05;;;9.00;99.90;;;;;;4841717;29;20050;-87
2022/03/14 06:27:00;;;;;;;5.95;3.13;;;9.00;99.90;;;;;;4842323;29;20058;-85
2022/03/14 06:29:26;;;;;;;6.70;3.72;;;9.00;99.90;;;;;;4843373;29;20096;-86
2022/03/14 06:31:51;;;;;;;5.35;3.50;;;9.00;99.90;;;;;;4842308;29;20070;-85
2022/03/14 06:34:17;;;;;;;5.43;3.90;;;8.90;99.90;;;;;;4842008;29;20535;-87
2022/03/14 06:36:44;;;;;;;5.55;3.95;;;8.90;99.90;;;;;;4841341;29;20515;-85
2022/03/14 06:39:10;;;;;;;5.97;4.13;;;8.90;99.90;;;;;;4841906;29;20058;-86
2022/03/14 06:41:38;;;;;;;7.00;3.83;;;8.90;99.90;;;;;;4841774;29;20053;-86
2022/03/14 06:44:05;;;;;;;7.07;3.85;;;8.90;99.90;;;;;;4843029;29;20687;-85
2022/03/14 06:46:31;;;;;;;6.78;3.80;;;8.90;99.90;;;;;;4841749;29;20058;-86
2022/03/14 06:48:57;;;;;;;6.85;4.15;;;8.90;99.90;;;;;;4841998;29;20061;-86
2022/03/14 06:51:24;;;;;;;9.02;4.82;;;8.90;99.90;;;;;;4842402;29;20053;-85
2022/03/14 06:53:50;;;;;;;7.30;4.45;;;8.80;99.90;;;;;;4841436;29;20141;-86
2022/03/14 06:56:16;;;;;;;6.63;4.60;;;8.80;99.90;;;;;;4841792;29;20137;-87
2022/03/14 06:58:43;;;;;;;6.03;4.13;;;8.90;99.90;;;;;;4838023;29;20065;-86
2022/03/14 07:01:09;;;;;;;7.55;4.40;;;8.90;99.90;;;;;;4824307;29;20066;-87
2022/03/14 07:03:34;;;;;;;6.50;4.55;;;9.00;99.90;;;;;;4824307;29;20061;-86
2022/03/14 07:06:00;;;;;;;8.10;4.10;;;8.90;99.90;;;;;;4823401;29;20074;-86
2022/03/14 07:08:26;;;;;;;7.00;4.40;;;8.90;99.90;;;;;;4837316;29;20054;-89
2022/03/14 07:10:54;;;;;;;8.90;4.40;;;8.90;99.90;;;;;;4841048;29;20197;-83
2022/03/14 07:13:20;;;;;;;8.88;5.10;;;8.90;99.90;;;;;;4842171;29;20511;-83
2022/03/14 07:15:45;;;;;;;8.50;4.75;;;8.80;99.90;;;;;;4842156;29;20050;-83
2022/03/14 07:18:11;;;;;;;9.07;5.35;;;8.90;99.90;;;;;;4842193;29;20396;-84
2022/03/14 07:20:37;;;;;;;8.50;5.30;;;8.90;99.90;;;;;;4841048;29;20096;-83
2022/03/14 07:23:05;;;;;;;9.23;5.00;;;8.90;99.90;;;;;;4842316;29;20141;-83
2022/03/14 07:25:35;;;;;;;10.35;5.65;;;8.90;99.90;;;;;;4842077;29;20058;-83
2022/03/14 07:28:04;;;;;;;9.55;4.93;;;8.90;99.90;;;;;;4840865;29;20092;-84
2022/03/14 07:30:30;;;;;;;10.15;5.50;;;8.90;99.90;;;;;;4841463;29;20847;-83
2022/03/14 07:32:55;;;;;;;9.95;5.50;;;8.90;99.90;;;;;;4840961;29;20057;-83
2022/03/14 07:35:22;;;;;;;7.88;5.50;;;8.90;99.90;;;;;;4841268;29;20074;-84
2022/03/14 07:37:49;;;;;;;9.07;5.18;;;8.90;99.90;;;;;;4841785;29;20053;-84
2022/03/14 07:40:15;;;;;;;10.32;5.55;;;8.90;99.90;;;;;;4840599;29;20065;-84
2022/03/14 07:42:45;;;;;;;10.95;5.78;;;8.90;99.90;;;;;;4840696;29;20057;-84
2022/03/14 07:45:13;;;;;;;10.20;5.68;;;8.90;99.90;;;;;;4841940;29;20109;-84
2022/03/14 07:47:39;;;;;;;9.52;5.72;;;8.90;99.90;;;;;;4841839;29;20138;-84
2022/03/14 07:50:06;;;;;;;9.25;5.65;;;8.90;99.90;;;;;;4841807;29;20057;-84
2022/03/14 07:52:32;;;;;;;10.13;5.85;;;8.90;99.90;;;;;;4840690;29;20058;-84
2022/03/14 07:54:58;;;;;;;7.75;5.63;;;8.90;99.90;;;;;;4841599;29;20500;-84
2022/03/14 07:57:24;;;;;;;9.85;6.00;;;9.00;99.90;;;;;;4841681;29;20054;-84
2022/03/14 07:59:51;;;;;;;9.00;5.68;;;9.00;99.90;;;;;;4828394;29;20145;-84
2022/03/14 08:02:17;;;;;;;10.68;6.25;;;8.90;99.90;;;;;;4822632;29;20496;-84
2022/03/14 08:04:43;;;;;;;9.40;5.65;;;9.00;99.90;;;;;;4823414;29;20046;-84
2022/03/14 08:07:09;;;;;;;10.68;6.40;;;9.00;99.90;;;;;;4826024;29;20065;-84
2022/03/14 08:09:34;;;;;;;10.60;6.22;;;9.00;99.90;;;;;;4840084;29;20065;-84
2022/03/14 08:12:01;;;;;;;10.05;6.85;;;9.00;99.90;;;;;;4841157;29;20057;-84
2022/03/14 08:14:29;;;;;;;8.57;5.95;;;9.00;99.90;;;;;;4840298;29;20054;-84
2022/03/14 08:16:55;;;;;;;9.18;6.28;;;9.10;99.90;;;;;;4841364;29;20064;-84
2022/03/14 08:19:21;;;;;;;10.32;6.65;;;9.00;99.90;;;;;;4825350;29;20476;-84
2022/03/14 08:21:47;;;;;;;8.48;6.30;;;9.10;99.90;;;;;;4821462;29;20126;-78
2022/03/14 08:24:14;;;;;;;9.75;6.88;;;9.10;99.90;;;;;;4833637;29;20099;-81
2022/03/14 08:26:42;;;;;;;10.93;6.65;;;9.10;99.90;;;;;;4820104;29;20093;-82
2022/03/14 08:29:08;;;;;;;10.75;6.78;;;9.10;99.90;;;;;;4820244;29;20141;-82
2022/03/14 08:31:34;;;;;;;10.15;7.22;;;9.10;99.90;;;;;;4820788;29;20081;-81
2022/03/14 08:34:01;;;;;;;12.05;7.32;;;9.10;99.90;;;;;;4822024;29;20053;-81
2022/03/14 08:36:27;;;;;;;11.27;6.95;;;9.10;99.90;;;;;;4806412;29;20530;-81
2022/03/14 08:38:53;;;;;;;9.18;6.88;;;9.10;99.90;;;;;;4807929;29;20154;-81
2022/03/14 08:41:19;;;;;;;11.45;7.18;;;9.00;99.90;;;;;;4819562;29;20501;-81
2022/03/14 08:43:45;;;;;;;11.32;7.68;;;9.00;99.90;;;;;;4820043;29;20050;-79
2022/03/14 08:46:12;;;;;;;10.68;6.93;;;9.00;99.90;;;;;;4820719;29;20051;-81
2022/03/14 08:48:38;;;;;;;13.80;8.80;;;9.00;99.90;;;;;;4821845;29;20145;-80
2022/03/14 08:51:04;;;;;;;11.32;8.27;;;9.00;99.90;;;;;;4821267;29;20136;-80
2022/03/14 08:53:30;;;;;;;12.75;7.60;;;9.00;99.90;;;;;;4821512;29;20133;-81
2022/03/14 08:55:56;;;;;;;12.70;8.07;;;9.00;99.90;;;;;;4820956;29;20461;-81
2022/03/14 08:58:22;;;;;;;12.38;8.10;;;9.00;99.90;;;;;;4821810;29;20161;-80
2022/03/14 09:00:48;;;;;;;12.27;7.78;;;9.00;99.90;;;;;;4839399;29;20787;-79
2022/03/14 09:03:14;;;;;;;9.90;7.35;;;9.00;99.90;;;;;;4839358;29;20098;-80
2022/03/14 09:05:40;;;;;;;11.98;7.85;;;9.00;99.90;;;;;;4839506;29;20122;-81
2022/03/14 09:08:06;;;;;;;11.50;7.68;;;9.00;99.90;;;;;;4829359;29;20069;-80
2022/03/14 09:10:36;;;;;;;12.52;7.93;;;9.00;99.90;;;;;;4821190;29;20054;-80
2022/03/14 09:13:03;;;;;;;11.93;7.28;;;8.90;99.90;;;;;;4821686;29;20108;-80
2022/03/14 09:15:30;;;;;;;14.75;8.07;;;9.00;99.90;;;;;;4821837;29;20061;-81
2022/03/14 09:17:59;;;;;;;12.32;8.18;;;9.00;99.90;;;;;;4821951;29;20058;-81
2022/03/14 09:20:26;;;;;;;12.20;7.65;;;8.90;99.90;;;;;;4821396;29;20594;-79
2022/03/14 09:22:53;;;;;;;12.48;7.75;;;9.00;99.90;;;;;;4821988;29;20069;-81
2022/03/14 09:25:21;;;;;;;11.55;7.70;;;9.00;99.90;;;;;;4820234;29;20058;-80
2022/03/14 09:27:48;;;;;;;13.40;7.63;;;9.00;99.90;;;;;;4820680;29;20054;-80
2022/03/14 09:30:15;;;;;;;15.30;8.50;;;8.90;99.90;;;;;;4822594;29;20152;-80
2022/03/14 09:32:42;;;;;;;12.88;8.45;;;8.90;99.90;;;;;;4820239;29;20065;-80
2022/03/14 09:35:09;;;;;;;13.02;8.23;;;8.90;99.90;;;;;;4821079;29;20058;-79
2022/03/14 09:37:37;;;;;;;12.98;7.93;;;8.80;99.90;;;;;;4824148;29;20091;-79
2022/03/14 09:40:08;;;;;;;15.80;8.70;;;8.80;99.90;;;;;;4823928;29;20194;-81
2022/03/14 09:42:38;;;;;;;12.95;8.27;;;8.80;99.90;;;;;;4824088;29;20050;-89
2022/03/14 09:45:09;;;;;;;13.63;8.30;;;8.70;99.90;;;;;;4823638;29;20070;-84
2022/03/14 09:47:58;;;;;;;14.70;8.98;;;8.70;99.90;;;;;;4825535;29;20062;-85
2022/03/14 09:50:34;;;;;;;13.52;8.27;;;8.80;99.90;;;;;;4825641;29;20050;-86
2022/03/14 09:53:07;;;;;;;14.80;9.13;;;8.80;99.90;;;;;;4825274;29;20055;-87
2022/03/14 09:55:42;;;;;;;16.05;9.60;;;8.80;99.90;;;;;;4823735;29;20054;-87
2022/03/14 09:58:13;;;;;;;16.48;9.27;;;8.80;99.90;;;;;;4823818;29;20050;-88
2022/03/14 10:00:39;;;;;;;16.20;9.52;;;8.80;99.90;;;;;;4842600;29;20060;-86
2022/03/14 10:03:05;;;;;;;13.65;7.10;;;8.80;99.90;;;;;;4841347;29;20065;-86
2022/03/14 10:05:31;;;;;;;12.30;7.38;;;8.80;99.90;;;;;;4841308;29;20073;-86
2022/03/14 10:07:57;;;;;;;12.63;7.63;;;8.70;99.90;;;;;;4842934;29;20066;-87
2022/03/14 10:10:23;;;;;;;12.30;7.03;;;8.80;99.90;;;;;;4842184;29;20085;-86
2022/03/14 10:12:53;;;;;;;13.63;7.40;;;8.70;99.90;;;;;;4826662;29;20560;-87
2022/03/14 10:15:19;;;;;;;13.65;6.97;;;8.60;99.90;;;;;;4841089;29;20555;-86
2022/03/14 10:17:46;;;;;;;12.82;7.10;;;8.60;99.90;;;;;;4843090;29;20153;-87
2022/03/14 10:20:15;;;;;;;12.60;6.85;;;8.60;99.90;;;;;;4843080;29;20046;-86
2022/03/14 10:22:42;;;;;;;12.95;7.60;;;8.60;99.90;;;;;;4842628;29;20149;-86
2022/03/14 10:25:10;;;;;;;17.10;8.27;;;8.60;99.90;;;;;;4841924;29;20364;-86
2022/03/14 10:27:49;;;;;;;16.27;7.97;;;8.60;99.90;;;;;;4842878;29;20057;-85
2022/03/14 10:30:28;;;;;;;18.02;9.30;;;8.70;99.90;;;;;;4836256;29;20123;-86
2022/03/14 10:33:09;;;;;;;16.98;8.63;;;8.70;99.90;;;;;;4814279;29;20066;-80
2022/03/14 10:35:36;;;;;;;14.02;8.07;;;8.70;99.90;;;;;;4822372;29;20058;-80
2022/03/14 10:38:04;;;;;;;15.82;9.02;;;8.80;99.90;;;;;;4823495;29;20046;-80
2022/03/14 10:40:35;;;;;;;15.25;8.52;;;8.70;99.90;;;;;;4822188;29;20054;-83
2022/03/14 10:43:02;;;;;;;15.65;9.38;;;8.70;99.90;;;;;;4824305;29;20062;-81
2022/03/14 10:45:31;;;;;;;16.75;9.10;;;8.70;99.90;;;;;;4823396;29;20390;-82
2022/03/14 10:47:58;;;;;;;16.77;8.98;;;8.70;99.90;;;;;;4823020;29;20058;-83
2022/03/14 10:50:35;;;;;;;19.00;10.18;;;8.70;99.90;;;;;;4822887;29;20103;-82
2022/03/14 10:53:05;;;;;;;18.00;9.38;;;8.70;99.90;;;;;;4824149;29;20057;-82
2022/03/14 10:55:47;;;;;;;18.77;9.85;;;8.70;99.90;;;;;;4823509;29;20050;-81
2022/03/14 10:58:19;;;;;;;18.70;9.90;;;8.80;99.90;;;;;;4823981;29;20046;-80
2022/03/14 11:00:55;;;;;;;17.83;8.80;;;8.80;99.90;;;;;;4805507;29;20067;-82
2022/03/14 11:03:32;;;;;;;17.52;9.50;;;8.80;99.90;;;;;;4805771;29;20062;-81
2022/03/14 11:06:07;;;;;;;19.85;10.73;;;8.90;99.90;;;;;;4818671;29;20386;-81
2022/03/14 11:08:37;;;;;;;16.83;9.57;;;8.90;99.90;;;;;;4833876;29;20122;-81
2022/03/14 11:11:33;;;;;;;21.25;9.88;;;8.90;99.90;;;;;;4840957;29;20515;-79
2022/03/14 11:13:59;;;;;;;17.70;9.75;;;8.90;99.90;;;;;;4828501;29;20095;-81
2022/03/14 11:16:29;;;;;;;19.13;9.43;;;8.90;99.90;;;;;;4824712;29;20054;-79
2022/03/14 11:18:57;;;;;;;18.45;9.57;;;8.90;99.90;;;;;;4822200;29;20138;-80
2022/03/14 11:21:25;;;;;;;19.55;9.20;;;9.00;99.90;;;;;;4823727;29;20090;-81
2022/03/14 11:23:52;;;;;;;20.70;9.93;;;9.00;99.90;;;;;;4822032;29;20077;-79
2022/03/14 11:26:22;;;;;;;21.60;9.82;;;9.00;99.90;;;;;;4823202;29;20122;-80
2022/03/14 11:28:50;;;;;;;13.90;8.57;;;9.00;99.90;;;;;;4823459;29;20091;-81
2022/03/14 11:31:19;;;;;;;19.20;9.80;;;9.10;99.90;;;;;;4822640;29;20520;-82
2022/03/14 11:33:46;;;;;;;19.73;9.27;;;9.10;99.90;;;;;;4822819;29;20508;-83
2022/03/14 11:36:12;;;;;;;16.92;8.70;;;9.20;99.90;;;;;;4821399;29;20157;-80
2022/03/14 11:38:38;;;;;;;13.95;8.30;;;9.20;99.90;;;;;;4822049;29;20055;-81
2022/03/14 11:41:04;;;;;;;16.65;8.00;;;9.20;99.90;;;;;;4822383;29;20058;-80
2022/03/14 11:43:30;;;;;;;13.93;7.75;;;9.20;99.90;;;;;;4821906;29;20429;-80
2022/03/14 11:46:00;;;;;;;14.13;7.20;;;9.20;99.90;;;;;;4821308;29;20050;-81
2022/03/14 11:48:31;;;;;;;14.50;7.43;;;9.10;99.90;;;;;;4822742;29;20050;-81
2022/03/14 11:50:59;;;;;;;15.25;7.45;;;9.20;99.90;;;;;;4822423;29;20061;-80
2022/03/14 11:53:36;;;;;;;12.48;6.43;;;9.10;99.90;;;;;;4821953;29;20066;-81
2022/03/14 11:56:05;;;;;;;12.02;6.18;;;9.20;99.90;;;;;;4822582;29;20075;-80
2022/03/14 11:58:49;;;;;;;13.27;7.10;;;9.20;99.90;;;;;;4821924;29;20054;-80
2022/03/14 12:01:28;;;;;;;10.50;5.43;;;9.20;99.90;;;;;;4821897;29;20191;-79
2022/03/14 12:03:57;;;;;;;12.60;5.70;;;9.20;99.90;;;;;;4823236;29;20054;-81
2022/03/14 12:06:46;;;;;;;11.95;4.80;;;9.20;99.90;;;;;;4820833;29;20066;-80
2022/03/14 12:09:24;;;;;;;9.35;4.47;;;9.20;99.90;;;;;;4804611;29;20065;-80
2022/03/14 12:11:51;;;;;;;11.63;5.32;;;9.20;99.90;;;;;;4839442;29;20100;-81
2022/03/14 12:14:46;;;;;;;8.90;4.53;;;9.20;99.90;;;;;;4839368;29;20453;-81
2022/03/14 12:17:15;;;;;;;10.35;4.70;;;9.30;99.90;;;;;;4839467;29;20568;-81
2022/03/14 12:19:49;;;;;;;12.35;4.40;;;9.40;99.90;;;;;;4839441;29;20062;-80
2022/03/14 12:22:35;;;;;;;11.35;4.25;;;9.40;99.90;;;;;;4832712;29;20161;-79
2022/03/14 12:25:05;;;;;;;12.35;4.78;;;9.50;99.90;;;;;;4821421;29;20069;-80
2022/03/14 12:27:37;;;;;;;11.80;5.13;;;9.60;99.90;;;;;;4822625;29;20058;-80
2022/03/14 12:30:06;;;;;;;12.55;4.45;;;9.70;99.90;;;;;;4821809;29;20043;-80
2022/03/14 12:32:38;;;;;;;11.15;4.43;;;9.80;99.90;;;;;;4821172;29;20145;-80
2022/03/14 12:35:25;;;;;;;10.43;5.35;;;9.90;99.90;;;;;;4822259;29;20385;-81
2022/03/14 12:37:57;;;;;;;12.40;5.03;;;10.00;99.90;;;;;;4822008;29;20061;-81
2022/03/14 12:40:26;;;;;;;11.25;5.25;;;10.10;99.90;;;;;;4822084;29;20129;-80
2022/03/14 12:43:12;;;;;;;9.98;5.07;;;10.30;99.90;;;;;;4820813;29;20050;-82
2022/03/14 12:45:49;;;;;;;11.25;5.30;;;10.30;99.90;;;;;;4821867;29;20058;-79
2022/03/14 12:48:29;;;;;;;10.07;5.10;;;10.40;99.90;;;;;;4805888;29;20201;-81
2022/03/14 12:50:57;;;;;;;13.43;5.60;;;10.40;99.90;;;;;;4820850;29;20070;-81
2022/03/14 12:53:29;;;;;;;12.55;5.75;;;10.40;99.90;;;;;;4818460;29;20117;-81